Time;durP1;ratioP1;P1;durP2;ratioP2;P2;SDS_P1;SDS_P2;PMS_P1;PMS_P2;Temp;Humidity;BMP_temperature;BMP_pressure;BME280_temperature;BME280_humidity;BME280_pressure;Samples;Min_cycle;Max_cycle;Signal;HPM_P1;HPM_P2
2019/10/09 00:00:43;;;;;;;6.199999;2.35;;;;;;;14.22;100;94673.19;;;;
2019/10/09 00:01:44;;;;;;;6.199999;2.35;;;;;;;14.22;100;94673.19;;;;
2019/10/09 00:02:45;;;;;;;5.05;2.3;;;;;;;14.73;100;94687.41;;;;
2019/10/09 00:03:46;;;;;;;5.05;2.3;;;;;;;14.73;100;94687.41;;;;
2019/10/09 00:04:47;;;;;;;5.05;2.3;;;;;;;14.73;100;94687.41;;;;
2019/10/09 00:05:49;;;;;;;5.05;2.3;;;;;;;14.73;100;94687.41;;;;
2019/10/09 00:06:50;;;;;;;5.05;2.3;;;;;;;14.73;100;94687.41;;;;
2019/10/09 00:07:51;;;;;;;5.05;2.3;;;;;;;14.73;100;94687.41;;;;
2019/10/09 00:08:52;;;;;;;5.05;2.3;;;;;;;14.73;100;94687.41;;;;
2019/10/09 00:09:54;;;;;;;5.05;2.3;;;;;;;14.73;100;94687.41;;;;
2019/10/09 00:10:55;;;;;;;5.05;2.3;;;;;;;14.73;100;94687.41;;;;
2019/10/09 00:11:56;;;;;;;5.05;2.3;;;;;;;14.73;100;94687.41;;;;
2019/10/09 00:12:57;;;;;;;5.949999;2.55;;;;;;;15.11;100;94731.58;;;;
2019/10/09 00:13:58;;;;;;;5.949999;2.55;;;;;;;15.11;100;94731.58;;;;
2019/10/09 00:14:59;;;;;;;5.949999;2.55;;;;;;;15.11;100;94731.58;;;;
2019/10/09 00:16:01;;;;;;;5.949999;2.55;;;;;;;15.11;100;94731.58;;;;
2019/10/09 00:17:02;;;;;;;5.949999;2.55;;;;;;;15.11;100;94731.58;;;;
2019/10/09 00:18:03;;;;;;;5.949999;2.55;;;;;;;15.11;100;94731.58;;;;
2019/10/09 00:19:04;;;;;;;5.949999;2.55;;;;;;;15.11;100;94731.58;;;;
2019/10/09 00:20:05;;;;;;;5.949999;2.55;;;;;;;15.11;100;94731.58;;;;
2019/10/09 00:21:07;;;;;;;5.949999;2.55;;;;;;;15.11;100;94731.58;;;;
2019/10/09 00:22:08;;;;;;;5.949999;2.55;;;;;;;15.11;100;94731.58;;;;
2019/10/09 00:23:09;;;;;;;4.8;2.5;;;;;;;15.36;100;94747.42;;;;
2019/10/09 00:24:10;;;;;;;4.8;2.5;;;;;;;15.36;100;94747.42;;;;
2019/10/09 00:25:11;;;;;;;4.8;2.5;;;;;;;15.36;100;94747.42;;;;
2019/10/09 00:26:13;;;;;;;4.8;2.5;;;;;;;15.36;100;94747.42;;;;
2019/10/09 00:27:14;;;;;;;4.8;2.5;;;;;;;15.36;100;94747.42;;;;
2019/10/09 00:28:15;;;;;;;4.8;2.5;;;;;;;15.36;100;94747.42;;;;
2019/10/09 00:29:16;;;;;;;4.8;2.5;;;;;;;15.36;100;94747.42;;;;
2019/10/09 00:30:18;;;;;;;4.8;2.5;;;;;;;15.36;100;94747.42;;;;
2019/10/09 00:31:21;;;;;;;4.8;2.5;;;;;;;15.36;100;94747.42;;;;
2019/10/09 00:32:22;;;;;;;4.8;2.5;;;;;;;15.36;100;94747.42;;;;
2019/10/09 00:33:23;;;;;;;4.8;2.5;;;;;;;15.36;100;94747.42;;;;
2019/10/09 00:34:56;;;;;;;4.699999;2.7;;;;;;;15.28;100;94767.02;;;;
2019/10/09 00:35:57;;;;;;;4.699999;2.7;;;;;;;15.28;100;94767.02;;;;
2019/10/09 00:37:03;;;;;;;4.699999;2.7;;;;;;;15.28;100;94767.02;;;;
2019/10/09 00:38:04;;;;;;;4.699999;2.7;;;;;;;15.28;100;94767.02;;;;
2019/10/09 00:39:06;;;;;;;4.699999;2.7;;;;;;;15.28;100;94767.02;;;;
2019/10/09 00:40:13;;;;;;;4.699999;2.7;;;;;;;15.28;100;94767.02;;;;
2019/10/09 00:41:14;;;;;;;4.699999;2.7;;;;;;;15.28;100;94767.02;;;;
2019/10/09 00:42:15;;;;;;;4.699999;2.7;;;;;;;15.28;100;94767.02;;;;
2019/10/09 00:43:16;;;;;;;4.699999;2.7;;;;;;;15.28;100;94767.02;;;;
2019/10/09 00:44:17;;;;;;;5.6;3.35;;;;;;;15.21;100;94769.64;;;;
2019/10/09 00:45:18;;;;;;;5.6;3.35;;;;;;;15.21;100;94769.64;;;;
2019/10/09 00:46:19;;;;;;;5.6;3.35;;;;;;;15.21;100;94769.64;;;;
2019/10/09 00:47:21;;;;;;;5.6;3.35;;;;;;;15.21;100;94769.64;;;;
2019/10/09 00:48:22;;;;;;;5.6;3.35;;;;;;;15.21;100;94769.64;;;;
2019/10/09 00:49:23;;;;;;;5.6;3.35;;;;;;;15.21;100;94769.64;;;;
2019/10/09 00:50:25;;;;;;;5.6;3.35;;;;;;;15.21;100;94769.64;;;;
2019/10/09 00:51:26;;;;;;;5.6;3.35;;;;;;;15.21;100;94769.64;;;;
2019/10/09 00:52:27;;;;;;;5.6;3.35;;;;;;;15.21;100;94769.64;;;;
2019/10/09 00:53:28;;;;;;;5.6;3.35;;;;;;;15.21;100;94769.64;;;;
2019/10/09 00:54:29;;;;;;;5.6;3.35;;;;;;;15.21;100;94769.64;;;;
2019/10/09 00:55:30;;;;;;;4.649999;3.15;;;;;;;15.09;100;94796.3;;;;
2019/10/09 00:56:31;;;;;;;4.649999;3.15;;;;;;;15.09;100;94796.3;;;;
2019/10/09 00:57:33;;;;;;;4.649999;3.15;;;;;;;15.09;100;94796.3;;;;
2019/10/09 00:58:34;;;;;;;4.649999;3.15;;;;;;;15.09;100;94796.3;;;;
2019/10/09 00:59:35;;;;;;;4.649999;3.15;;;;;;;15.09;100;94796.3;;;;
2019/10/09 01:00:37;;;;;;;4.649999;3.15;;;;;;;15.09;100;94796.3;;;;
2019/10/09 01:01:40;;;;;;;4.649999;3.15;;;;;;;15.09;100;94796.3;;;;
2019/10/09 01:02:41;;;;;;;4.649999;3.15;;;;;;;15.09;100;94796.3;;;;
2019/10/09 01:03:43;;;;;;;4.649999;3.15;;;;;;;15.09;100;94796.3;;;;
2019/10/09 01:04:44;;;;;;;4.649999;3.15;;;;;;;15.09;100;94796.3;;;;
2019/10/09 01:05:45;;;;;;;4.45;3.15;;;;;;;15.05;100;94821.61;;;;
2019/10/09 01:06:46;;;;;;;4.45;3.15;;;;;;;15.05;100;94821.61;;;;
2019/10/09 01:07:47;;;;;;;4.45;3.15;;;;;;;15.05;100;94821.61;;;;
2019/10/09 01:08:49;;;;;;;4.45;3.15;;;;;;;15.05;100;94821.61;;;;
2019/10/09 01:09:50;;;;;;;4.45;3.15;;;;;;;15.05;100;94821.61;;;;
2019/10/09 01:10:51;;;;;;;4.45;3.15;;;;;;;15.05;100;94821.61;;;;
2019/10/09 01:11:52;;;;;;;4.45;3.15;;;;;;;15.05;100;94821.61;;;;
2019/10/09 01:12:54;;;;;;;4.45;3.15;;;;;;;15.05;100;94821.61;;;;
2019/10/09 01:13:55;;;;;;;4.45;3.15;;;;;;;15.05;100;94821.61;;;;
2019/10/09 01:14:56;;;;;;;4.45;3.15;;;;;;;15.05;100;94821.61;;;;
2019/10/09 01:15:57;;;;;;;4.45;3.15;;;;;;;15.05;100;94821.61;;;;
2019/10/09 01:16:58;;;;;;;5.25;3.45;;;;;;;14.94;100;94829.92;;;;
2019/10/09 01:17:59;;;;;;;5.25;3.45;;;;;;;14.94;100;94829.92;;;;
2019/10/09 01:19:01;;;;;;;5.25;3.45;;;;;;;14.94;100;94829.92;;;;
2019/10/09 01:20:03;;;;;;;5.25;3.45;;;;;;;14.94;100;94829.92;;;;
2019/10/09 01:21:05;;;;;;;5.25;3.45;;;;;;;14.94;100;94829.92;;;;
2019/10/09 01:22:06;;;;;;;5.25;3.45;;;;;;;14.94;100;94829.92;;;;
2019/10/09 01:23:07;;;;;;;5.25;3.45;;;;;;;14.94;100;94829.92;;;;
2019/10/09 01:24:08;;;;;;;5.25;3.45;;;;;;;14.94;100;94829.92;;;;
2019/10/09 01:25:10;;;;;;;5.25;3.45;;;;;;;14.94;100;94829.92;;;;
2019/10/09 01:26:11;;;;;;;5.25;3.45;;;;;;;14.94;100;94829.92;;;;
2019/10/09 01:27:12;;;;;;;6.3;3.400001;;;;;;;14.89;100;94841.22;;;;
2019/10/09 01:28:13;;;;;;;6.3;3.400001;;;;;;;14.89;100;94841.22;;;;
2019/10/09 01:29:14;;;;;;;6.3;3.400001;;;;;;;14.89;100;94841.22;;;;
2019/10/09 01:30:15;;;;;;;6.3;3.400001;;;;;;;14.89;100;94841.22;;;;
2019/10/09 01:31:17;;;;;;;6.3;3.400001;;;;;;;14.89;100;94841.22;;;;
2019/10/09 01:32:18;;;;;;;6.3;3.400001;;;;;;;14.89;100;94841.22;;;;
2019/10/09 01:33:19;;;;;;;6.3;3.400001;;;;;;;14.89;100;94841.22;;;;
2019/10/09 01:34:20;;;;;;;6.3;3.400001;;;;;;;14.89;100;94841.22;;;;
2019/10/09 01:35:21;;;;;;;6.3;3.400001;;;;;;;14.89;100;94841.22;;;;
2019/10/09 01:36:23;;;;;;;6.3;3.400001;;;;;;;14.89;100;94841.22;;;;
2019/10/09 01:37:24;;;;;;;7.199999;3.7;;;;;;;14.76;100;94854.41;;;;
2019/10/09 01:38:25;;;;;;;7.199999;3.7;;;;;;;14.76;100;94854.41;;;;
2019/10/09 01:39:26;;;;;;;7.199999;3.7;;;;;;;14.76;100;94854.41;;;;
2019/10/09 01:40:27;;;;;;;7.199999;3.7;;;;;;;14.76;100;94854.41;;;;
2019/10/09 01:41:29;;;;;;;7.199999;3.7;;;;;;;14.76;100;94854.41;;;;
2019/10/09 01:42:30;;;;;;;7.199999;3.7;;;;;;;14.76;100;94854.41;;;;
2019/10/09 01:43:31;;;;;;;7.199999;3.7;;;;;;;14.76;100;94854.41;;;;
2019/10/09 01:44:32;;;;;;;7.199999;3.7;;;;;;;14.76;100;94854.41;;;;
2019/10/09 01:45:33;;;;;;;7.199999;3.7;;;;;;;14.76;100;94854.41;;;;
2019/10/09 01:46:35;;;;;;;7.199999;3.7;;;;;;;14.76;100;94854.41;;;;
2019/10/09 01:47:36;;;;;;;7.199999;3.7;;;;;;;14.76;100;94854.41;;;;
2019/10/09 01:48:37;;;;;;;6.3;4.05;;;;;;;14.64;100;94856.17;;;;
2019/10/09 01:49:38;;;;;;;6.3;4.05;;;;;;;14.64;100;94856.17;;;;
2019/10/09 01:50:40;;;;;;;6.3;4.05;;;;;;;14.64;100;94856.17;;;;
2019/10/09 01:51:41;;;;;;;6.3;4.05;;;;;;;14.64;100;94856.17;;;;
2019/10/09 01:52:42;;;;;;;6.3;4.05;;;;;;;14.64;100;94856.17;;;;
2019/10/09 01:53:43;;;;;;;6.3;4.05;;;;;;;14.64;100;94856.17;;;;
2019/10/09 01:54:44;;;;;;;6.3;4.05;;;;;;;14.64;100;94856.17;;;;
2019/10/09 01:55:46;;;;;;;6.3;4.05;;;;;;;14.64;100;94856.17;;;;
2019/10/09 01:56:47;;;;;;;6.3;4.05;;;;;;;14.64;100;94856.17;;;;
2019/10/09 01:57:48;;;;;;;6.3;4.05;;;;;;;14.64;100;94856.17;;;;
2019/10/09 01:58:49;;;;;;;5.099999;3.45;;;;;;;14.47;100;94875.03;;;;
2019/10/09 01:59:51;;;;;;;5.099999;3.45;;;;;;;14.47;100;94875.03;;;;
2019/10/09 02:00:52;;;;;;;5.099999;3.45;;;;;;;14.47;100;94875.03;;;;
2019/10/09 02:01:53;;;;;;;5.099999;3.45;;;;;;;14.47;100;94875.03;;;;
2019/10/09 02:02:55;;;;;;;5.099999;3.45;;;;;;;14.47;100;94875.03;;;;
2019/10/09 02:03:56;;;;;;;5.099999;3.45;;;;;;;14.47;100;94875.03;;;;
2019/10/09 02:04:57;;;;;;;5.099999;3.45;;;;;;;14.47;100;94875.03;;;;
2019/10/09 02:05:58;;;;;;;5.099999;3.45;;;;;;;14.47;100;94875.03;;;;
2019/10/09 02:06:59;;;;;;;5.099999;3.45;;;;;;;14.47;100;94875.03;;;;
2019/10/09 02:08:01;;;;;;;5.099999;3.45;;;;;;;14.47;100;94875.03;;;;
2019/10/09 02:09:03;;;;;;;5.099999;3.45;;;;;;;14.47;100;94875.03;;;;
2019/10/09 02:10:09;;;;;;;5.35;3.95;;;;;;;14.39;100;94897.85;;;;
2019/10/09 02:11:10;;;;;;;5.35;3.95;;;;;;;14.39;100;94897.85;;;;
2019/10/09 02:12:11;;;;;;;5.35;3.95;;;;;;;14.39;100;94897.85;;;;
2019/10/09 02:13:12;;;;;;;5.35;3.95;;;;;;;14.39;100;94897.85;;;;
2019/10/09 02:14:14;;;;;;;5.35;3.95;;;;;;;14.39;100;94897.85;;;;
2019/10/09 02:15:15;;;;;;;5.35;3.95;;;;;;;14.39;100;94897.85;;;;
2019/10/09 02:16:16;;;;;;;5.35;3.95;;;;;;;14.39;100;94897.85;;;;
2019/10/09 02:17:17;;;;;;;5.35;3.95;;;;;;;14.39;100;94897.85;;;;
2019/10/09 02:18:18;;;;;;;5.35;3.95;;;;;;;14.39;100;94897.85;;;;
2019/10/09 02:19:20;;;;;;;5.35;3.95;;;;;;;14.39;100;94897.85;;;;
2019/10/09 02:20:21;;;;;;;4.75;3.5;;;;;;;14.25;100;94915.7;;;;
2019/10/09 02:21:22;;;;;;;4.75;3.5;;;;;;;14.25;100;94915.7;;;;
2019/10/09 02:22:23;;;;;;;4.75;3.5;;;;;;;14.25;100;94915.7;;;;
2019/10/09 02:23:24;;;;;;;4.75;3.5;;;;;;;14.25;100;94915.7;;;;
2019/10/09 02:24:26;;;;;;;4.75;3.5;;;;;;;14.25;100;94915.7;;;;
2019/10/09 02:25:27;;;;;;;4.75;3.5;;;;;;;14.25;100;94915.7;;;;
2019/10/09 02:26:31;;;;;;;4.75;3.5;;;;;;;14.25;100;94915.7;;;;
2019/10/09 02:27:32;;;;;;;4.75;3.5;;;;;;;14.25;100;94915.7;;;;
2019/10/09 02:28:33;;;;;;;4.75;3.5;;;;;;;14.25;100;94915.7;;;;
2019/10/09 02:29:34;;;;;;;4.75;3.5;;;;;;;14.25;100;94915.7;;;;
2019/10/09 02:30:35;;;;;;;3.900001;2.8;;;;;;;14.16;100;94936.69;;;;
2019/10/09 02:31:37;;;;;;;3.900001;2.8;;;;;;;14.16;100;94936.69;;;;
2019/10/09 02:32:38;;;;;;;3.900001;2.8;;;;;;;14.16;100;94936.69;;;;
2019/10/09 02:33:39;;;;;;;3.900001;2.8;;;;;;;14.16;100;94936.69;;;;
2019/10/09 02:34:40;;;;;;;3.900001;2.8;;;;;;;14.16;100;94936.69;;;;
2019/10/09 02:35:41;;;;;;;3.900001;2.8;;;;;;;14.16;100;94936.69;;;;
2019/10/09 02:36:43;;;;;;;3.900001;2.8;;;;;;;14.16;100;94936.69;;;;
2019/10/09 02:37:44;;;;;;;3.900001;2.8;;;;;;;14.16;100;94936.69;;;;
2019/10/09 02:38:45;;;;;;;3.900001;2.8;;;;;;;14.16;100;94936.69;;;;
2019/10/09 02:39:46;;;;;;;3.900001;2.8;;;;;;;14.16;100;94936.69;;;;
2019/10/09 02:40:47;;;;;;;3.900001;2.8;;;;;;;14.16;100;94936.69;;;;
2019/10/09 02:41:48;;;;;;;3.35;2.1;;;;;;;13.96;100;94968.66;;;;
2019/10/09 02:42:50;;;;;;;3.35;2.1;;;;;;;13.96;100;94968.66;;;;
2019/10/09 02:43:51;;;;;;;3.35;2.1;;;;;;;13.96;100;94968.66;;;;
2019/10/09 02:44:52;;;;;;;3.35;2.1;;;;;;;13.96;100;94968.66;;;;
2019/10/09 02:45:54;;;;;;;3.35;2.1;;;;;;;13.96;100;94968.66;;;;
2019/10/09 02:46:55;;;;;;;3.35;2.1;;;;;;;13.96;100;94968.66;;;;
2019/10/09 02:47:56;;;;;;;3.35;2.1;;;;;;;13.96;100;94968.66;;;;
2019/10/09 02:48:57;;;;;;;3.35;2.1;;;;;;;13.96;100;94968.66;;;;
2019/10/09 02:49:58;;;;;;;3.35;2.1;;;;;;;13.96;100;94968.66;;;;
2019/10/09 02:51:00;;;;;;;3.35;2.1;;;;;;;13.96;100;94968.66;;;;
2019/10/09 02:52:01;;;;;;;3.2;1.55;;;;;;;13.72;100;94957.54;;;;
2019/10/09 02:53:02;;;;;;;3.2;1.55;;;;;;;13.72;100;94957.54;;;;
2019/10/09 02:54:03;;;;;;;3.2;1.55;;;;;;;13.72;100;94957.54;;;;
2019/10/09 02:55:04;;;;;;;3.2;1.55;;;;;;;13.72;100;94957.54;;;;
2019/10/09 02:56:06;;;;;;;3.2;1.55;;;;;;;13.72;100;94957.54;;;;
2019/10/09 02:57:07;;;;;;;3.2;1.55;;;;;;;13.72;100;94957.54;;;;
2019/10/09 02:58:08;;;;;;;3.2;1.55;;;;;;;13.72;100;94957.54;;;;
2019/10/09 02:59:09;;;;;;;3.2;1.55;;;;;;;13.72;100;94957.54;;;;
2019/10/09 03:00:10;;;;;;;3.2;1.55;;;;;;;13.72;100;94957.54;;;;
2019/10/09 03:01:12;;;;;;;3.2;1.55;;;;;;;13.72;100;94957.54;;;;
2019/10/09 03:02:13;;;;;;;1.5;1.3;;;;;;;13.28;100;94967.83;;;;
2019/10/09 03:03:14;;;;;;;1.5;1.3;;;;;;;13.28;100;94967.83;;;;
2019/10/09 03:04:16;;;;;;;1.5;1.3;;;;;;;13.28;100;94967.83;;;;
2019/10/09 03:05:17;;;;;;;1.5;1.3;;;;;;;13.28;100;94967.83;;;;
2019/10/09 03:06:18;;;;;;;1.5;1.3;;;;;;;13.28;100;94967.83;;;;
2019/10/09 03:07:19;;;;;;;1.5;1.3;;;;;;;13.28;100;94967.83;;;;
2019/10/09 03:08:21;;;;;;;1.5;1.3;;;;;;;13.28;100;94967.83;;;;
2019/10/09 03:09:22;;;;;;;1.5;1.3;;;;;;;13.28;100;94967.83;;;;
2019/10/09 03:10:23;;;;;;;1.5;1.3;;;;;;;13.28;100;94967.83;;;;
2019/10/09 03:11:26;;;;;;;1.5;1.3;;;;;;;13.28;100;94967.83;;;;
2019/10/09 03:12:27;;;;;;;1.5;1.3;;;;;;;13.28;100;94967.83;;;;
2019/10/09 03:13:29;;;;;;;3.65;1.55;;;;;;;12.97;100;94959.97;;;;
2019/10/09 03:14:30;;;;;;;3.65;1.55;;;;;;;12.97;100;94959.97;;;;
2019/10/09 03:15:31;;;;;;;3.65;1.55;;;;;;;12.97;100;94959.97;;;;
2019/10/09 03:16:33;;;;;;;3.65;1.55;;;;;;;12.97;100;94959.97;;;;
2019/10/09 03:17:34;;;;;;;3.65;1.55;;;;;;;12.97;100;94959.97;;;;
2019/10/09 03:18:36;;;;;;;3.65;1.55;;;;;;;12.97;100;94959.97;;;;
2019/10/09 03:19:39;;;;;;;3.65;1.55;;;;;;;12.97;100;94959.97;;;;
2019/10/09 03:20:41;;;;;;;3.65;1.55;;;;;;;12.97;100;94959.97;;;;
2019/10/09 03:21:42;;;;;;;3.65;1.55;;;;;;;12.97;100;94959.97;;;;
2019/10/09 03:22:43;;;;;;;3.65;1.55;;;;;;;12.97;100;94959.97;;;;
2019/10/09 03:23:53;;;;;;;2.7;1.3;;;;;;;12.71;100;94974.91;;;;
2019/10/09 03:25:04;;;;;;;2.7;1.3;;;;;;;12.71;100;94974.91;;;;
2019/10/09 03:26:43;;;;;;;2.7;1.3;;;;;;;12.71;100;94974.91;;;;
2019/10/09 03:27:55;;;;;;;2.7;1.3;;;;;;;12.71;100;94974.91;;;;
2019/10/09 03:29:38;;;;;;;2.7;1.3;;;;;;;12.71;100;94974.91;;;;
2019/10/09 03:34:46;;;;;;;2.2;1.4;;;;;;;12.6;100;94960.86;;;;
2019/10/09 03:35:50;;;;;;;2.2;1.4;;;;;;;12.6;100;94960.86;;;;
2019/10/09 03:37:09;;;;;;;2.2;1.4;;;;;;;12.6;100;94960.86;;;;
2019/10/09 03:39:23;;;;;;;2.2;1.4;;;;;;;12.6;100;94960.86;;;;
2019/10/09 03:40:46;;;;;;;2.2;1.4;;;;;;;12.6;100;94960.86;;;;
2019/10/09 03:41:57;;;;;;;2.2;1.4;;;;;;;12.6;100;94960.86;;;;
2019/10/09 03:42:58;;;;;;;2.2;1.4;;;;;;;12.6;100;94960.86;;;;
2019/10/09 03:44:00;;;;;;;2.2;1.4;;;;;;;12.6;100;94960.86;;;;
2019/10/09 03:45:01;;;;;;;4.85;1.65;;;;;;;12.44;100;94947.83;;;;
2019/10/09 03:46:02;;;;;;;4.85;1.65;;;;;;;12.44;100;94947.83;;;;
2019/10/09 03:47:03;;;;;;;4.85;1.65;;;;;;;12.44;100;94947.83;;;;
2019/10/09 03:48:04;;;;;;;4.85;1.65;;;;;;;12.44;100;94947.83;;;;
2019/10/09 03:49:06;;;;;;;4.85;1.65;;;;;;;12.44;100;94947.83;;;;
2019/10/09 03:50:07;;;;;;;4.85;1.65;;;;;;;12.44;100;94947.83;;;;
2019/10/09 03:51:08;;;;;;;4.85;1.65;;;;;;;12.44;100;94947.83;;;;
2019/10/09 03:52:09;;;;;;;4.85;1.65;;;;;;;12.44;100;94947.83;;;;
2019/10/09 03:53:10;;;;;;;4.85;1.65;;;;;;;12.44;100;94947.83;;;;
2019/10/09 03:54:12;;;;;;;4.85;1.65;;;;;;;12.44;100;94947.83;;;;
2019/10/09 03:55:13;;;;;;;3.1;1.6;;;;;;;12.31;100;94961.77;;;;
2019/10/09 03:56:14;;;;;;;3.1;1.6;;;;;;;12.31;100;94961.77;;;;
2019/10/09 03:57:16;;;;;;;3.1;1.6;;;;;;;12.31;100;94961.77;;;;
2019/10/09 03:58:17;;;;;;;3.1;1.6;;;;;;;12.31;100;94961.77;;;;
2019/10/09 03:59:18;;;;;;;3.1;1.6;;;;;;;12.31;100;94961.77;;;;
2019/10/09 04:00:20;;;;;;;3.1;1.6;;;;;;;12.31;100;94961.77;;;;
2019/10/09 04:01:21;;;;;;;3.1;1.6;;;;;;;12.31;100;94961.77;;;;
2019/10/09 04:02:22;;;;;;;3.1;1.6;;;;;;;12.31;100;94961.77;;;;
2019/10/09 04:03:23;;;;;;;3.1;1.6;;;;;;;12.31;100;94961.77;;;;
2019/10/09 04:04:25;;;;;;;3.1;1.6;;;;;;;12.31;100;94961.77;;;;
2019/10/09 04:05:26;;;;;;;3.1;1.6;;;;;;;12.31;100;94961.77;;;;
2019/10/09 04:06:27;;;;;;;2.7;1.6;;;;;;;12.2;100;94964.08;;;;
2019/10/09 04:07:28;;;;;;;2.7;1.6;;;;;;;12.2;100;94964.08;;;;
2019/10/09 04:08:29;;;;;;;2.7;1.6;;;;;;;12.2;100;94964.08;;;;
2019/10/09 04:09:30;;;;;;;2.7;1.6;;;;;;;12.2;100;94964.08;;;;
2019/10/09 04:10:32;;;;;;;2.7;1.6;;;;;;;12.2;100;94964.08;;;;
2019/10/09 04:11:33;;;;;;;2.7;1.6;;;;;;;12.2;100;94964.08;;;;
2019/10/09 04:12:34;;;;;;;2.7;1.6;;;;;;;12.2;100;94964.08;;;;
2019/10/09 04:13:35;;;;;;;2.7;1.6;;;;;;;12.2;100;94964.08;;;;
2019/10/09 04:14:36;;;;;;;2.7;1.6;;;;;;;12.2;100;94964.08;;;;
2019/10/09 04:15:38;;;;;;;2.7;1.6;;;;;;;12.2;100;94964.08;;;;
2019/10/09 04:16:39;;;;;;;4.199999;1.95;;;;;;;12.16;100;94984.2;;;;
2019/10/09 04:17:41;;;;;;;4.199999;1.95;;;;;;;12.16;100;94984.2;;;;
2019/10/09 04:18:43;;;;;;;4.199999;1.95;;;;;;;12.16;100;94984.2;;;;
2019/10/09 04:19:45;;;;;;;4.199999;1.95;;;;;;;12.16;100;94984.2;;;;
2019/10/09 04:20:46;;;;;;;4.199999;1.95;;;;;;;12.16;100;94984.2;;;;
2019/10/09 04:21:47;;;;;;;4.199999;1.95;;;;;;;12.16;100;94984.2;;;;
2019/10/09 04:22:50;;;;;;;4.199999;1.95;;;;;;;12.16;100;94984.2;;;;
2019/10/09 04:23:51;;;;;;;4.199999;1.95;;;;;;;12.16;100;94984.2;;;;
2019/10/09 04:24:54;;;;;;;4.199999;1.95;;;;;;;12.16;100;94984.2;;;;
2019/10/09 04:25:55;;;;;;;4.199999;1.95;;;;;;;12.16;100;94984.2;;;;
2019/10/09 04:26:57;;;;;;;4.199999;1.95;;;;;;;12.16;100;94984.2;;;;
2019/10/09 04:27:58;;;;;;;4.5;2.1;;;;;;;12.01;100;95003.37;;;;
2019/10/09 04:28:59;;;;;;;4.5;2.1;;;;;;;12.01;100;95003.37;;;;
2019/10/09 04:30:01;;;;;;;4.5;2.1;;;;;;;12.01;100;95003.37;;;;
2019/10/09 04:31:02;;;;;;;4.5;2.1;;;;;;;12.01;100;95003.37;;;;
2019/10/09 04:32:03;;;;;;;4.5;2.1;;;;;;;12.01;100;95003.37;;;;
2019/10/09 04:33:04;;;;;;;4.5;2.1;;;;;;;12.01;100;95003.37;;;;
2019/10/09 04:34:05;;;;;;;4.5;2.1;;;;;;;12.01;100;95003.37;;;;
2019/10/09 04:35:06;;;;;;;4.5;2.1;;;;;;;12.01;100;95003.37;;;;
2019/10/09 04:36:08;;;;;;;4.5;2.1;;;;;;;12.01;100;95003.37;;;;
2019/10/09 04:37:09;;;;;;;4.5;2.1;;;;;;;12.01;100;95003.37;;;;
2019/10/09 04:38:10;;;;;;;4.25;2.3;;;;;;;11.92;100;94985;;;;
2019/10/09 04:39:11;;;;;;;4.25;2.3;;;;;;;11.92;100;94985;;;;
2019/10/09 04:40:12;;;;;;;4.25;2.3;;;;;;;11.92;100;94985;;;;
2019/10/09 04:41:13;;;;;;;4.25;2.3;;;;;;;11.92;100;94985;;;;
2019/10/09 04:42:15;;;;;;;4.25;2.3;;;;;;;11.92;100;94985;;;;
2019/10/09 04:43:16;;;;;;;4.25;2.3;;;;;;;11.92;100;94985;;;;
2019/10/09 04:44:17;;;;;;;4.25;2.3;;;;;;;11.92;100;94985;;;;
2019/10/09 04:45:18;;;;;;;4.25;2.3;;;;;;;11.92;100;94985;;;;
2019/10/09 04:46:19;;;;;;;4.25;2.3;;;;;;;11.92;100;94985;;;;
2019/10/09 04:47:20;;;;;;;4.25;2.3;;;;;;;11.92;100;94985;;;;
2019/10/09 04:48:22;;;;;;;4.8;2.5;;;;;;;11.82;100;95015.95;;;;
2019/10/09 04:49:23;;;;;;;4.8;2.5;;;;;;;11.82;100;95015.95;;;;
2019/10/09 04:50:24;;;;;;;4.8;2.5;;;;;;;11.82;100;95015.95;;;;
2019/10/09 04:51:25;;;;;;;4.8;2.5;;;;;;;11.82;100;95015.95;;;;
2019/10/09 04:52:26;;;;;;;4.8;2.5;;;;;;;11.82;100;95015.95;;;;
2019/10/09 04:53:27;;;;;;;4.8;2.5;;;;;;;11.82;100;95015.95;;;;
2019/10/09 04:54:28;;;;;;;4.8;2.5;;;;;;;11.82;100;95015.95;;;;
2019/10/09 04:55:30;;;;;;;4.8;2.5;;;;;;;11.82;100;95015.95;;;;
2019/10/09 04:56:36;;;;;;;4.8;2.5;;;;;;;11.82;100;95015.95;;;;
2019/10/09 04:57:38;;;;;;;4.8;2.5;;;;;;;11.82;100;95015.95;;;;
2019/10/09 04:58:39;;;;;;;4.8;2.5;;;;;;;11.82;100;95015.95;;;;
2019/10/09 04:59:40;;;;;;;5.599999;2.35;;;;;;;11.78;100;95003.05;;;;
2019/10/09 05:00:41;;;;;;;5.599999;2.35;;;;;;;11.78;100;95003.05;;;;
2019/10/09 05:01:43;;;;;;;5.599999;2.35;;;;;;;11.78;100;95003.05;;;;
2019/10/09 05:02:44;;;;;;;5.599999;2.35;;;;;;;11.78;100;95003.05;;;;
2019/10/09 05:03:45;;;;;;;5.599999;2.35;;;;;;;11.78;100;95003.05;;;;
2019/10/09 05:04:46;;;;;;;5.599999;2.35;;;;;;;11.78;100;95003.05;;;;
2019/10/09 05:05:47;;;;;;;5.599999;2.35;;;;;;;11.78;100;95003.05;;;;
2019/10/09 05:06:49;;;;;;;5.599999;2.35;;;;;;;11.78;100;95003.05;;;;
2019/10/09 05:07:50;;;;;;;5.599999;2.35;;;;;;;11.78;100;95003.05;;;;
2019/10/09 05:08:51;;;;;;;5.599999;2.35;;;;;;;11.78;100;95003.05;;;;
2019/10/09 05:09:52;;;;;;;4;2.2;;;;;;;11.71;100;95010.53;;;;
2019/10/09 05:10:53;;;;;;;4;2.2;;;;;;;11.71;100;95010.53;;;;
2019/10/09 05:11:54;;;;;;;4;2.2;;;;;;;11.71;100;95010.53;;;;
2019/10/09 05:12:56;;;;;;;4;2.2;;;;;;;11.71;100;95010.53;;;;
2019/10/09 05:13:57;;;;;;;4;2.2;;;;;;;11.71;100;95010.53;;;;
2019/10/09 05:14:58;;;;;;;4;2.2;;;;;;;11.71;100;95010.53;;;;
2019/10/09 05:15:59;;;;;;;4;2.2;;;;;;;11.71;100;95010.53;;;;
2019/10/09 05:17:00;;;;;;;4;2.2;;;;;;;11.71;100;95010.53;;;;
2019/10/09 05:18:01;;;;;;;4;2.2;;;;;;;11.71;100;95010.53;;;;
2019/10/09 05:19:02;;;;;;;4;2.2;;;;;;;11.71;100;95010.53;;;;
2019/10/09 05:20:04;;;;;;;4;2.2;;;;;;;11.71;100;95010.53;;;;
2019/10/09 05:21:05;;;;;;;5.2;2.45;;;;;;;11.73;100;95018.8;;;;
2019/10/09 05:22:06;;;;;;;5.2;2.45;;;;;;;11.73;100;95018.8;;;;
2019/10/09 05:23:07;;;;;;;5.2;2.45;;;;;;;11.73;100;95018.8;;;;
2019/10/09 05:24:08;;;;;;;5.2;2.45;;;;;;;11.73;100;95018.8;;;;
2019/10/09 05:25:10;;;;;;;5.2;2.45;;;;;;;11.73;100;95018.8;;;;
2019/10/09 05:26:11;;;;;;;5.2;2.45;;;;;;;11.73;100;95018.8;;;;
2019/10/09 05:27:12;;;;;;;5.2;2.45;;;;;;;11.73;100;95018.8;;;;
2019/10/09 05:28:13;;;;;;;5.2;2.45;;;;;;;11.73;100;95018.8;;;;
2019/10/09 05:29:14;;;;;;;5.2;2.45;;;;;;;11.73;100;95018.8;;;;
2019/10/09 05:30:15;;;;;;;5.2;2.45;;;;;;;11.73;100;95018.8;;;;
2019/10/09 05:31:16;;;;;;;6.45;2.75;;;;;;;11.69;100;95001.84;;;;
2019/10/09 05:32:18;;;;;;;6.45;2.75;;;;;;;11.69;100;95001.84;;;;
2019/10/09 05:33:19;;;;;;;6.45;2.75;;;;;;;11.69;100;95001.84;;;;
2019/10/09 05:34:20;;;;;;;6.45;2.75;;;;;;;11.69;100;95001.84;;;;
2019/10/09 05:35:21;;;;;;;6.45;2.75;;;;;;;11.69;100;95001.84;;;;
2019/10/09 05:36:22;;;;;;;6.45;2.75;;;;;;;11.69;100;95001.84;;;;
2019/10/09 05:37:23;;;;;;;6.45;2.75;;;;;;;11.69;100;95001.84;;;;
2019/10/09 05:38:24;;;;;;;6.45;2.75;;;;;;;11.69;100;95001.84;;;;
2019/10/09 05:39:26;;;;;;;6.45;2.75;;;;;;;11.69;100;95001.84;;;;
2019/10/09 05:40:27;;;;;;;6.45;2.75;;;;;;;11.69;100;95001.84;;;;
2019/10/09 05:41:28;;;;;;;9.700002;3.05;;;;;;;11.73;100;95013.95;;;;
2019/10/09 05:42:29;;;;;;;9.700002;3.05;;;;;;;11.73;100;95013.95;;;;
2019/10/09 05:43:30;;;;;;;9.700002;3.05;;;;;;;11.73;100;95013.95;;;;
2019/10/09 05:44:31;;;;;;;9.700002;3.05;;;;;;;11.73;100;95013.95;;;;
2019/10/09 05:45:32;;;;;;;9.700002;3.05;;;;;;;11.73;100;95013.95;;;;
2019/10/09 05:46:33;;;;;;;9.700002;3.05;;;;;;;11.73;100;95013.95;;;;
2019/10/09 05:47:34;;;;;;;9.700002;3.05;;;;;;;11.73;100;95013.95;;;;
2019/10/09 05:48:36;;;;;;;9.700002;3.05;;;;;;;11.73;100;95013.95;;;;
2019/10/09 05:49:37;;;;;;;9.700002;3.05;;;;;;;11.73;100;95013.95;;;;
2019/10/09 05:50:38;;;;;;;9.700002;3.05;;;;;;;11.73;100;95013.95;;;;
2019/10/09 05:51:39;;;;;;;9.700002;3.05;;;;;;;11.73;100;95013.95;;;;
2019/10/09 05:52:40;;;;;;;7.6;3.1;;;;;;;11.69;100;95004.69;;;;
2019/10/09 05:53:42;;;;;;;7.6;3.1;;;;;;;11.69;100;95004.69;;;;
2019/10/09 05:54:43;;;;;;;7.6;3.1;;;;;;;11.69;100;95004.69;;;;
2019/10/09 05:55:44;;;;;;;7.6;3.1;;;;;;;11.69;100;95004.69;;;;
2019/10/09 05:56:45;;;;;;;7.6;3.1;;;;;;;11.69;100;95004.69;;;;
2019/10/09 05:57:46;;;;;;;7.6;3.1;;;;;;;11.69;100;95004.69;;;;
2019/10/09 05:58:47;;;;;;;7.6;3.1;;;;;;;11.69;100;95004.69;;;;
2019/10/09 05:59:49;;;;;;;7.6;3.1;;;;;;;11.69;100;95004.69;;;;
2019/10/09 06:00:50;;;;;;;7.6;3.1;;;;;;;11.69;100;95004.69;;;;
2019/10/09 06:01:51;;;;;;;7.6;3.1;;;;;;;11.69;100;95004.69;;;;
2019/10/09 06:02:52;;;;;;;16.35;4.7;;;;;;;11.75;100;95003.7;;;;
2019/10/09 06:03:53;;;;;;;16.35;4.7;;;;;;;11.75;100;95003.7;;;;
2019/10/09 06:04:54;;;;;;;16.35;4.7;;;;;;;11.75;100;95003.7;;;;
2019/10/09 06:05:55;;;;;;;16.35;4.7;;;;;;;11.75;100;95003.7;;;;
2019/10/09 06:06:56;;;;;;;16.35;4.7;;;;;;;11.75;100;95003.7;;;;
2019/10/09 06:07:58;;;;;;;16.35;4.7;;;;;;;11.75;100;95003.7;;;;
2019/10/09 06:08:59;;;;;;;16.35;4.7;;;;;;;11.75;100;95003.7;;;;
2019/10/09 06:10:00;;;;;;;16.35;4.7;;;;;;;11.75;100;95003.7;;;;
2019/10/09 06:11:01;;;;;;;16.35;4.7;;;;;;;11.75;100;95003.7;;;;
2019/10/09 06:12:03;;;;;;;16.35;4.7;;;;;;;11.75;100;95003.7;;;;
2019/10/09 06:13:04;;;;;;;16.35;4.7;;;;;;;11.75;100;95003.7;;;;
2019/10/09 06:14:06;;;;;;;10.25;3.75;;;;;;;11.8;100;95004.57;;;;
2019/10/09 06:15:07;;;;;;;10.25;3.75;;;;;;;11.8;100;95004.57;;;;
2019/10/09 06:16:39;;;;;;;10.25;3.75;;;;;;;11.8;100;95004.57;;;;
2019/10/09 06:17:40;;;;;;;10.25;3.75;;;;;;;11.8;100;95004.57;;;;
2019/10/09 06:18:41;;;;;;;10.25;3.75;;;;;;;11.8;100;95004.57;;;;
2019/10/09 06:19:42;;;;;;;10.25;3.75;;;;;;;11.8;100;95004.57;;;;
2019/10/09 06:20:43;;;;;;;10.25;3.75;;;;;;;11.8;100;95004.57;;;;
2019/10/09 06:21:45;;;;;;;10.25;3.75;;;;;;;11.8;100;95004.57;;;;
2019/10/09 06:22:46;;;;;;;10.25;3.75;;;;;;;11.8;100;95004.57;;;;